CST,Max TemperatureF,Mean TemperatureF,Min TemperatureF,Max Dew PointF,MeanDew PointF,Min DewpointF,Max Humidity, Mean Humidity, Min Humidity, Max Sea Level PressureIn, Mean Sea Level PressureIn, Min Sea Level PressureIn, Max VisibilityMiles, Mean VisibilityMiles, Min VisibilityMiles, Max Wind SpeedMPH, Mean Wind SpeedMPH, Max Gust SpeedMPH,PrecipitationIn, CloudCover, Events, WindDirDegrees
2013-1-1,14,4,-5,3,-1,-11,92,76,57,30.34,30.25,30.15,10,10,10,8,4,,0.00,0,,215
2013-1-2,30,18,5,28,16,1,100,90,80,30.23,30.11,30.06,10,8,2,12,6,,0.00,5,Snow,239
2013-1-3,28,20,12,27,15,9,93,84,73,30.42,30.35,30.23,10,10,4,23,11,28,0.00,4,Snow,279
2013-1-4,30,19,8,19,15,9,100,84,64,30.33,30.24,30.17,10,10,7,12,7,,0.00,0,,198
2013-1-5,32,21,10,27,17,9,100,89,74,30.20,30.09,29.99,10,8,0,26,7,33,0.00,3,Fog,239
2013-1-6,26,17,8,19,15,7,100,85,69,30.35,30.26,30.17,10,10,5,21,10,26,0.00,1,Snow,233
2013-1-7,37,28,19,28,23,18,100,82,65,30.16,30.06,30.00,10,9,0,18,8,25,0.00,0,Fog,201
2013-1-8,39,27,15,30,24,14,100,86,70,30.14,29.96,29.86,10,9,3,16,4,24,0.00,0,,221
2013-1-9,42,30,19,30,28,18,100,84,57,30.48,30.35,30.14,10,10,4,13,6,,0.00,0,,222
2013-1-10,39,34,28,37,29,19,100,78,45,30.38,30.03,29.74,10,8,0,13,5,17,0.07,5,Fog-Rain,150
2013-1-11,48,39,30,45,38,27,100,96,82,29.73,29.56,29.42,10,5,0,28,8,36,0.01,5,Fog-Snow,193
2013-1-12,30,21,12,27,10,5,86,70,58,30.15,30.03,29.72,10,10,7,26,18,36,0.00,6,Snow,297
2013-1-13,17,11,5,5,2,0,85,70,45,30.35,30.23,30.12,10,10,10,18,11,22,0.00,2,,307
2013-1-14,26,14,3,12,6,0,92,75,47,30.48,30.41,30.36,10,10,10,12,2,10,0.00,0,,216
2013-1-15,32,20,8,14,11,7,92,70,38,30.38,30.26,30.06,10,10,10,14,5,18,0.00,1,,197
2013-1-16,46,32,17,32,25,12,93,74,53,30.26,30.03,29.92,10,10,7,17,10,22,0.00,3,Snow,265
2013-1-17,37,26,15,28,19,10,100,77,54,30.48,30.40,30.28,10,9,3,10,6,,0.00,0,,288
2013-1-18,50,37,24,30,28,25,100,74,43,30.32,30.05,29.91,10,10,3,26,10,30,0.00,0,,200
2013-1-19,48,32,17,30,25,9,93,68,43,30.35,30.05,29.87,10,10,10,26,11,38,0.00,0,,294
2013-1-20,17,10,3,10,5,1,92,73,53,30.44,30.40,30.35,10,9,1,16,9,,0.00,4,Snow,337
2013-1-21,12,6,0,7,-5,-9,79,65,52,30.47,30.42,30.38,10,10,5,18,12,25,0.00,2,,316
2013-1-22,15,10,6,5,-1,-6,79,61,52,30.42,30.35,30.29,10,10,10,6,3,,0.00,6,,197
2013-1-23,28,16,3,14,7,-8,85,69,47,30.56,30.31,30.18,10,10,10,22,9,29,0.00,0,,339
2013-1-24,17,8,0,1,-6,-9,66,50,32,30.60,30.43,30.22,10,10,10,16,11,21,0.00,3,,113
2013-1-25,42,25,8,21,14,3,93,65,39,30.30,30.19,30.13,10,10,10,18,8,25,0.00,0,,291
2013-1-26,42,25,8,18,11,3,79,56,31,30.31,30.21,30.08,10,10,10,15,8,20,0.00,1,,132
2013-1-27,39,36,32,39,33,18,100,91,48,30.08,29.87,29.74,10,4,0,15,8,20,0.18,8,Fog-Rain,157
2013-1-28,44,38,33,45,39,34,100,100,100,29.92,29.78,29.59,7,1,0,10,4,16,0.01,8,Fog-Rain,124
2013-1-29,39,34,28,39,32,27,100,95,86,29.72,29.66,29.56,10,7,0,22,10,31,0.00,8,Fog-Snow,345
2013-1-30,28,19,10,27,16,7,100,83,68,29.93,29.79,29.64,10,9,1,32,22,38,0.01,7,Snow,321
2013-1-31,10,4,-2,5,-5,-11,79,68,56,30.42,30.19,29.93,10,9,2,29,18,37,0.00,3,,307